Jacksonville International Airport
KJAX : now visible

Airfield :











YOU CAN JOIN US ON...

 
LOGIN :

Register | Disclaimer

   EN    FR    IT 

 









Legend :    VFR   Marginal VFR   IFR   Intensive IFR   Very Intensive IFR
Visi :
Ceiling :
>= 8 km
>= 3000ft
5 to 8 km
1000 to 3000 ft
1500m to 5 km
500 to 1000 ft
800 to 1500m
200 to 500 ft
< 800m
< 200 ft
Symbols :   Thunderstorms  Fog  Heavy snow  Heavy precipitations  Wind > 20 kt






- Airport Elevation : 30 ft
- IATA code : JAX


KJAX - Jacksonville International

CURRENT METAR :
  • 080356Z 22004KT 10SM SCT032 BKN250 24/23 A2996 RMK AO2 SLP146 T02440228 $

EXPIRED METARs :
  • 080256Z 24008KT 10SM SCT032 BKN250 26/23 A2998 RMK AO2 SLP151 T02560228 53007 $
  • 080156Z 22006KT 10SM BKN200 BKN250 25/24 A2997 RMK AO2 SLP148 T02500239 $

TAF KJAX
Valid from the 08 at 02:00 until the 09 at 00:00 UTC


080142Z 0802/0824 22006KT P6SM SCT025 BKN100 BKN200
TEMPO 0802/0804 6SM SHRA SCT025 OVC050
FM080800 24006KT P6SM SCT015 BKN025
FM081300 26010KT P6SM VCSH SCT015 BKN025
FM081600 27010KT 6SM -SHRA VCTS SCT025CB BKN035 BKN070
PROB30 0817/0823 VRB15G25KT 3SM TSRA BKN025CB
KZJX FIR / North America



MET'MAP, your aeronautical weather chart ! - Copyright ORBIFLY December 2007 - Disclaimer

ORBIFLY MET'MAP TEAM :

Programming & Development : Alexandra Zaïnal
Concept & original design : Baudouin d'Aumeries
Assistance for programming : Marc-Olivier Méhu
Technical & hardware support : Manuel Goepfert

Contact : metmap@orbifly.com




SOURCES & CREDITS :

   NOAA       Earth
Advisory